Air Navigation Services of Czech Republic  
Last data update:  07.07.2020 22:50:25 UTC česká verze
   METEO Page displayed:  07.07.2020 22:52:09 UTC  
help
METAR EDDB 072220Z 26005KT 9999 -RA NSC 13/11 Q1016 NOSIG=
METAR EDDC 072220Z 22005KT CAVOK 16/06 Q1016=
METAR EDDE 072220Z VRB02KT 9999 -RADZ FEW023 14/09 Q1017=
METAR EDDF 072220Z 22003KT CAVOK 15/08 Q1017 NOSIG=
METAR EDDM 072220Z 29001KT CAVOK 10/09 Q1019 NOSIG=
METAR EDDN 072220Z 10005KT CAVOK 13/08 Q1018=
METAR EDDP 072220Z 32005KT 9999 -RA NSC 13/11 Q1017 NOSIG=
METAR EDDT 072220Z 26007KT 9999 -RA NSC 13/11 Q1016=
METAR EDQM NIL
METAR EPBY 072230Z 20006KT CAVOK 13/07 Q1014=
METAR EPGD 072230Z 18004KT CAVOK 11/08 Q1012=
METAR EPKK 072230Z 24002KT CAVOK 10/08 Q1018=
METAR EPKT 072230Z 20002KT CAVOK 10/08 Q1017=
METAR EPLL 072230Z VRB01KT CAVOK 10/08 Q1016=
METAR EPPO 072230Z 22005KT CAVOK 13/06 Q1014=
METAR EPRZ 072230Z 26008KT CAVOK 10/08 Q1017=
METAR EPWA 072230Z 17002KT CAVOK 11/08 Q1016 NOSIG=
METAR EPWR 072230Z 22008KT CAVOK 12/08 Q1016=
METAR LHBP 072230Z 34006KT CAVOK 13/08 Q1018 NOSIG=
METAR LHSM 072215Z AUTO 31005KT CAVOK 12/10 Q1019=
METAR LKBC 072230Z AUTO 00000KT 9999 BKN072 12/09 Q1018=
METAR LKCV 072230Z 12002KT CAVOK 12/09 Q1017 NOSIG RMK BLU BLU=
METAR LKKB 072230Z 19006KT CAVOK 16/07 Q1017 RMK BLU=
METAR LKKU NIL
METAR LKKV 072200Z 00000KT CAVOK 09/05 Q1018 RMK REG QNH 1015=
METAR LKLN 072230Z AUTO VRB02KT 9999 SCT076 13/08 Q1018=
METAR LKMT 072230Z 19004KT CAVOK 12/09 Q1018 NOSIG RMK REG QNH 1015=
METAR LKNA 072230Z 17004KT CAVOK 14/07 Q1018 RMK BLU=
METAR LKPD 072230Z 00000KT CAVOK 12/09 Q1017 RMK BLU BLU=
METAR LKPJ 072230Z AUTO 00000KT CAVOK 10/08 Q1018=
METAR LKPR 072230Z 20007KT CAVOK 13/07 Q1017 NOSIG RMK REG QNH 1015=
METAR LKTB 072230Z 00000KT CAVOK 13/08 Q1018 NOSIG RMK REG QNH 1015=
METAR LKVO NIL
METAR LOWI 072220Z AUTO VRB02KT 9999 NCD 14/09 Q1019=
METAR LOWL 072220Z AUTO 24003KT 9999 NCD 13/09 Q1019=
METAR LOWS 072220Z AUTO 15005KT 9999 NCD 12/09 Q1020=
METAR LOWW 072220Z 23004KT 210V270 CAVOK 14/08 Q1019 NOSIG=
METAR LZIB 072230Z 05002KT CAVOK 13/09 Q1019=
METAR LZKZ 072230Z VRB02KT CAVOK 12/09 Q1018=
METAR LZMC 072100Z 13004KT CAVOK 12/08 Q1019=
METAR LZPP 072230Z AUTO VRB02KT 9999 NCD 09/07 Q1019=
METAR LZSL 072230Z 00000KT CAVOK 10/07 Q1019=
METAR LZTT 072230Z VRB02KT CAVOK 06/04 Q1019=
METAR LZZI 072230Z 13003KT CAVOK 10/08 Q1019=